sensor_id;sensor_type;location;lat;lon;timestamp;P1;durP1;ratioP1;P2;durP2;ratioP2
70455;SDS011;57916;51.996;5.180;2023-04-24T00:01:57;1.90;;;1.50;;
70455;SDS011;57916;51.996;5.180;2023-04-24T00:04:24;2.20;;;1.90;;
70455;SDS011;57916;51.996;5.180;2023-04-24T00:06:52;1.40;;;1.40;;
70455;SDS011;57916;51.996;5.180;2023-04-24T00:09:20;1.40;;;1.20;;
70455;SDS011;57916;51.996;5.180;2023-04-24T00:11:47;1.60;;;1.20;;
70455;SDS011;57916;51.996;5.180;2023-04-24T00:14:14;2.63;;;1.08;;
70455;SDS011;57916;51.996;5.180;2023-04-24T00:16:41;1.35;;;1.25;;
70455;SDS011;57916;51.996;5.180;2023-04-24T00:19:08;4.80;;;1.42;;
70455;SDS011;57916;51.996;5.180;2023-04-24T00:21:35;2.30;;;1.70;;
70455;SDS011;57916;51.996;5.180;2023-04-24T00:24:02;2.93;;;1.60;;
70455;SDS011;57916;51.996;5.180;2023-04-24T00:26:29;2.53;;;1.75;;
70455;SDS011;57916;51.996;5.180;2023-04-24T00:28:56;3.65;;;1.98;;
70455;SDS011;57916;51.996;5.180;2023-04-24T00:31:23;4.97;;;1.58;;
70455;SDS011;57916;51.996;5.180;2023-04-24T00:33:49;3.33;;;1.70;;
70455;SDS011;57916;51.996;5.180;2023-04-24T00:36:16;4.88;;;1.70;;
70455;SDS011;57916;51.996;5.180;2023-04-24T00:38:45;3.65;;;1.80;;
70455;SDS011;57916;51.996;5.180;2023-04-24T00:41:12;3.90;;;1.83;;
70455;SDS011;57916;51.996;5.180;2023-04-24T00:43:39;2.15;;;1.95;;
70455;SDS011;57916;51.996;5.180;2023-04-24T00:46:06;2.10;;;2.00;;
70455;SDS011;57916;51.996;5.180;2023-04-24T00:48:34;4.20;;;2.10;;
70455;SDS011;57916;51.996;5.180;2023-04-24T00:51:01;3.42;;;2.17;;
70455;SDS011;57916;51.996;5.180;2023-04-24T00:53:28;2.13;;;2.00;;
70455;SDS011;57916;51.996;5.180;2023-04-24T00:55:55;4.72;;;2.35;;
70455;SDS011;57916;51.996;5.180;2023-04-24T00:58:22;2.72;;;2.35;;
70455;SDS011;57916;51.996;5.180;2023-04-24T01:00:49;2.50;;;2.35;;
70455;SDS011;57916;51.996;5.180;2023-04-24T01:03:20;2.70;;;2.50;;
70455;SDS011;57916;51.996;5.180;2023-04-24T01:05:54;3.45;;;2.20;;
70455;SDS011;57916;51.996;5.180;2023-04-24T01:08:23;4.05;;;2.50;;
70455;SDS011;57916;51.996;5.180;2023-04-24T01:10:51;2.70;;;2.50;;
70455;SDS011;57916;51.996;5.180;2023-04-24T01:13:19;3.13;;;2.35;;
70455;SDS011;57916;51.996;5.180;2023-04-24T01:15:47;2.38;;;2.25;;
70455;SDS011;57916;51.996;5.180;2023-04-24T01:18:15;2.60;;;2.40;;
70455;SDS011;57916;51.996;5.180;2023-04-24T01:20:42;2.80;;;2.58;;
70455;SDS011;57916;51.996;5.180;2023-04-24T01:23:11;2.60;;;2.40;;
70455;SDS011;57916;51.996;5.180;2023-04-24T01:25:38;2.67;;;2.47;;
70455;SDS011;57916;51.996;5.180;2023-04-24T01:28:05;2.75;;;2.53;;
70455;SDS011;57916;51.996;5.180;2023-04-24T01:30:32;2.60;;;2.40;;
70455;SDS011;57916;51.996;5.180;2023-04-24T01:32:59;2.83;;;2.35;;
70455;SDS011;57916;51.996;5.180;2023-04-24T01:35:27;3.30;;;2.60;;
70455;SDS011;57916;51.996;5.180;2023-04-24T01:37:54;4.33;;;2.90;;
70455;SDS011;57916;51.996;5.180;2023-04-24T01:40:21;3.10;;;2.90;;
70455;SDS011;57916;51.996;5.180;2023-04-24T01:42:48;3.92;;;2.83;;
70455;SDS011;57916;51.996;5.180;2023-04-24T01:45:15;3.20;;;2.70;;
70455;SDS011;57916;51.996;5.180;2023-04-24T01:47:42;2.90;;;2.70;;
70455;SDS011;57916;51.996;5.180;2023-04-24T01:50:10;3.28;;;2.97;;
70455;SDS011;57916;51.996;5.180;2023-04-24T01:52:38;3.80;;;3.33;;
70455;SDS011;57916;51.996;5.180;2023-04-24T01:55:05;3.80;;;3.40;;
70455;SDS011;57916;51.996;5.180;2023-04-24T01:57:33;4.05;;;3.50;;
70455;SDS011;57916;51.996;5.180;2023-04-24T02:00:01;2.80;;;2.60;;
70455;SDS011;57916;51.996;5.180;2023-04-24T02:02:39;3.17;;;2.80;;
70455;SDS011;57916;51.996;5.180;2023-04-24T02:05:09;3.60;;;3.30;;
70455;SDS011;57916;51.996;5.180;2023-04-24T02:07:37;3.80;;;3.53;;
70455;SDS011;57916;51.996;5.180;2023-04-24T02:10:04;4.00;;;3.22;;
70455;SDS011;57916;51.996;5.180;2023-04-24T02:12:31;3.00;;;2.80;;
70455;SDS011;57916;51.996;5.180;2023-04-24T02:14:58;2.53;;;2.30;;
70455;SDS011;57916;51.996;5.180;2023-04-24T02:17:25;3.20;;;3.00;;
70455;SDS011;57916;51.996;5.180;2023-04-24T02:19:52;3.70;;;3.40;;
70455;SDS011;57916;51.996;5.180;2023-04-24T02:22:19;4.25;;;3.90;;
70455;SDS011;57916;51.996;5.180;2023-04-24T02:24:46;4.10;;;3.70;;
70455;SDS011;57916;51.996;5.180;2023-04-24T02:27:14;4.60;;;3.85;;
70455;SDS011;57916;51.996;5.180;2023-04-24T02:29:41;4.13;;;3.80;;
70455;SDS011;57916;51.996;5.180;2023-04-24T02:32:09;3.92;;;3.50;;
70455;SDS011;57916;51.996;5.180;2023-04-24T02:34:39;3.95;;;3.65;;
70455;SDS011;57916;51.996;5.180;2023-04-24T02:37:06;6.38;;;3.85;;
70455;SDS011;57916;51.996;5.180;2023-04-24T02:39:32;5.03;;;3.95;;
70455;SDS011;57916;51.996;5.180;2023-04-24T02:41:59;5.18;;;3.70;;
70455;SDS011;57916;51.996;5.180;2023-04-24T02:44:28;4.53;;;4.13;;
70455;SDS011;57916;51.996;5.180;2023-04-24T02:46:55;4.63;;;4.22;;
70455;SDS011;57916;51.996;5.180;2023-04-24T02:49:22;5.53;;;4.20;;
70455;SDS011;57916;51.996;5.180;2023-04-24T02:51:49;4.70;;;4.05;;
70455;SDS011;57916;51.996;5.180;2023-04-24T02:54:16;4.53;;;4.00;;
70455;SDS011;57916;51.996;5.180;2023-04-24T02:56:43;5.47;;;3.88;;
70455;SDS011;57916;51.996;5.180;2023-04-24T02:59:10;5.22;;;4.40;;
70455;SDS011;57916;51.996;5.180;2023-04-24T03:01:37;4.68;;;4.10;;
70455;SDS011;57916;51.996;5.180;2023-04-24T03:04:04;4.75;;;4.15;;
70455;SDS011;57916;51.996;5.180;2023-04-24T03:06:31;3.60;;;3.30;;
70455;SDS011;57916;51.996;5.180;2023-04-24T03:08:59;3.22;;;2.92;;
70455;SDS011;57916;51.996;5.180;2023-04-24T03:11:26;3.10;;;2.72;;
70455;SDS011;57916;51.996;5.180;2023-04-24T03:13:52;3.40;;;3.10;;
70455;SDS011;57916;51.996;5.180;2023-04-24T03:16:19;4.00;;;3.70;;
70455;SDS011;57916;51.996;5.180;2023-04-24T03:18:46;4.47;;;3.97;;
70455;SDS011;57916;51.996;5.180;2023-04-24T03:21:13;4.60;;;4.20;;
70455;SDS011;57916;51.996;5.180;2023-04-24T03:23:41;7.60;;;4.40;;
70455;SDS011;57916;51.996;5.180;2023-04-24T03:26:08;7.25;;;3.70;;
70455;SDS011;57916;51.996;5.180;2023-04-24T03:28:39;3.35;;;2.72;;
70455;SDS011;57916;51.996;5.180;2023-04-24T03:31:07;2.50;;;2.30;;
70455;SDS011;57916;51.996;5.180;2023-04-24T03:33:35;2.83;;;2.40;;
70455;SDS011;57916;51.996;5.180;2023-04-24T03:36:02;2.25;;;1.90;;
70455;SDS011;57916;51.996;5.180;2023-04-24T03:38:37;2.17;;;2.00;;
70455;SDS011;57916;51.996;5.180;2023-04-24T03:41:26;1.90;;;1.80;;
70455;SDS011;57916;51.996;5.180;2023-04-24T03:43:59;2.05;;;1.90;;
70455;SDS011;57916;51.996;5.180;2023-04-24T03:46:26;2.38;;;1.90;;
70455;SDS011;57916;51.996;5.180;2023-04-24T03:48:57;2.72;;;2.10;;
70455;SDS011;57916;51.996;5.180;2023-04-24T03:51:28;2.65;;;2.47;;
70455;SDS011;57916;51.996;5.180;2023-04-24T03:54:06;3.30;;;2.65;;
70455;SDS011;57916;51.996;5.180;2023-04-24T03:56:36;4.28;;;2.70;;
70455;SDS011;57916;51.996;5.180;2023-04-24T03:59:03;3.53;;;2.50;;
70455;SDS011;57916;51.996;5.180;2023-04-24T04:01:30;2.90;;;2.70;;
70455;SDS011;57916;51.996;5.180;2023-04-24T04:04:01;6.28;;;3.40;;
70455;SDS011;57916;51.996;5.180;2023-04-24T04:06:29;4.25;;;3.50;;
70455;SDS011;57916;51.996;5.180;2023-04-24T04:08:58;4.00;;;3.70;;
70455;SDS011;57916;51.996;5.180;2023-04-24T04:11:26;4.00;;;3.70;;
70455;SDS011;57916;51.996;5.180;2023-04-24T04:13:53;4.72;;;4.28;;
70455;SDS011;57916;51.996;5.180;2023-04-24T04:16:20;3.90;;;3.47;;
70455;SDS011;57916;51.996;5.180;2023-04-24T04:18:50;2.63;;;2.50;;
70455;SDS011;57916;51.996;5.180;2023-04-24T04:21:17;2.35;;;2.00;;
70455;SDS011;57916;51.996;5.180;2023-04-24T04:23:45;1.88;;;1.77;;
70455;SDS011;57916;51.996;5.180;2023-04-24T04:26:17;1.40;;;1.30;;
70455;SDS011;57916;51.996;5.180;2023-04-24T04:28:59;1.52;;;1.20;;
70455;SDS011;57916;51.996;5.180;2023-04-24T04:31:31;1.20;;;1.08;;
70455;SDS011;57916;51.996;5.180;2023-04-24T04:34:01;1.10;;;1.00;;
70455;SDS011;57916;51.996;5.180;2023-04-24T04:36:30;1.00;;;0.90;;
70455;SDS011;57916;51.996;5.180;2023-04-24T04:39:06;1.77;;;0.93;;
70455;SDS011;57916;51.996;5.180;2023-04-24T04:42:00;1.60;;;0.80;;
70455;SDS011;57916;51.996;5.180;2023-04-24T04:44:33;2.00;;;1.10;;
70455;SDS011;57916;51.996;5.180;2023-04-24T04:47:03;1.02;;;1.02;;
70455;SDS011;57916;51.996;5.180;2023-04-24T04:49:34;1.10;;;0.80;;
70455;SDS011;57916;51.996;5.180;2023-04-24T04:52:02;0.93;;;0.82;;
70455;SDS011;57916;51.996;5.180;2023-04-24T04:54:30;1.27;;;0.50;;
70455;SDS011;57916;51.996;5.180;2023-04-24T04:56:57;1.17;;;0.70;;
70455;SDS011;57916;51.996;5.180;2023-04-24T04:59:25;3.30;;;0.70;;
70455;SDS011;57916;51.996;5.180;2023-04-24T05:01:59;1.40;;;0.60;;
70455;SDS011;57916;51.996;5.180;2023-04-24T05:04:26;2.60;;;0.63;;
70455;SDS011;57916;51.996;5.180;2023-04-24T05:06:53;2.30;;;0.50;;
70455;SDS011;57916;51.996;5.180;2023-04-24T05:09:21;0.60;;;0.47;;
70455;SDS011;57916;51.996;5.180;2023-04-24T05:11:53;1.00;;;0.50;;
70455;SDS011;57916;51.996;5.180;2023-04-24T05:14:22;1.00;;;0.60;;
70455;SDS011;57916;51.996;5.180;2023-04-24T05:16:49;1.25;;;0.50;;
70455;SDS011;57916;51.996;5.180;2023-04-24T05:19:19;1.90;;;0.60;;
70455;SDS011;57916;51.996;5.180;2023-04-24T05:21:46;1.85;;;0.60;;
70455;SDS011;57916;51.996;5.180;2023-04-24T05:24:13;1.08;;;0.80;;
70455;SDS011;57916;51.996;5.180;2023-04-24T05:27:01;0.98;;;0.80;;
70455;SDS011;57916;51.996;5.180;2023-04-24T05:29:36;2.45;;;0.80;;
70455;SDS011;57916;51.996;5.180;2023-04-24T05:32:04;1.40;;;0.70;;
70455;SDS011;57916;51.996;5.180;2023-04-24T05:34:32;0.93;;;0.82;;
70455;SDS011;57916;51.996;5.180;2023-04-24T05:36:58;1.70;;;0.80;;
70455;SDS011;57916;51.996;5.180;2023-04-24T05:39:25;1.02;;;0.90;;
70455;SDS011;57916;51.996;5.180;2023-04-24T05:41:53;1.00;;;0.70;;
70455;SDS011;57916;51.996;5.180;2023-04-24T05:44:21;1.00;;;0.85;;
70455;SDS011;57916;51.996;5.180;2023-04-24T05:46:48;0.95;;;0.80;;
70455;SDS011;57916;51.996;5.180;2023-04-24T05:49:15;1.30;;;0.60;;
70455;SDS011;57916;51.996;5.180;2023-04-24T05:51:44;0.80;;;0.80;;
70455;SDS011;57916;51.996;5.180;2023-04-24T05:54:11;1.75;;;0.68;;
70455;SDS011;57916;51.996;5.180;2023-04-24T05:56:38;1.75;;;0.80;;
70455;SDS011;57916;51.996;5.180;2023-04-24T05:59:10;1.38;;;0.90;;
70455;SDS011;57916;51.996;5.180;2023-04-24T06:01:36;2.85;;;1.00;;
70455;SDS011;57916;51.996;5.180;2023-04-24T06:04:10;2.50;;;1.00;;
70455;SDS011;57916;51.996;5.180;2023-04-24T06:06:39;3.65;;;1.10;;
70455;SDS011;57916;51.996;5.180;2023-04-24T06:09:08;4.30;;;1.30;;
70455;SDS011;57916;51.996;5.180;2023-04-24T06:11:35;7.30;;;1.30;;
70455;SDS011;57916;51.996;5.180;2023-04-24T06:14:02;5.00;;;1.20;;
70455;SDS011;57916;51.996;5.180;2023-04-24T06:16:38;3.17;;;1.15;;
70455;SDS011;57916;51.996;5.180;2023-04-24T06:19:26;1.92;;;1.30;;
70455;SDS011;57916;51.996;5.180;2023-04-24T06:21:53;2.85;;;1.95;;
70455;SDS011;57916;51.996;5.180;2023-04-24T06:24:20;7.45;;;3.90;;
70455;SDS011;57916;51.996;5.180;2023-04-24T06:26:47;6.22;;;5.10;;
70455;SDS011;57916;51.996;5.180;2023-04-24T06:29:14;11.23;;;6.50;;
70455;SDS011;57916;51.996;5.180;2023-04-24T06:31:41;10.20;;;7.10;;
70455;SDS011;57916;51.996;5.180;2023-04-24T06:34:09;11.07;;;6.95;;
70455;SDS011;57916;51.996;5.180;2023-04-24T06:36:36;12.80;;;7.68;;
70455;SDS011;57916;51.996;5.180;2023-04-24T06:39:03;16.23;;;6.70;;
70455;SDS011;57916;51.996;5.180;2023-04-24T06:41:30;18.67;;;8.32;;
70455;SDS011;57916;51.996;5.180;2023-04-24T06:43:57;17.83;;;8.25;;
70455;SDS011;57916;51.996;5.180;2023-04-24T06:46:24;17.20;;;8.57;;
70455;SDS011;57916;51.996;5.180;2023-04-24T06:48:53;21.02;;;9.98;;
70455;SDS011;57916;51.996;5.180;2023-04-24T06:51:23;18.70;;;9.80;;
70455;SDS011;57916;51.996;5.180;2023-04-24T06:53:52;24.63;;;9.90;;
70455;SDS011;57916;51.996;5.180;2023-04-24T06:56:20;22.52;;;9.73;;
70455;SDS011;57916;51.996;5.180;2023-04-24T06:58:46;22.50;;;9.77;;
70455;SDS011;57916;51.996;5.180;2023-04-24T07:01:13;23.67;;;9.55;;
70455;SDS011;57916;51.996;5.180;2023-04-24T07:03:41;15.10;;;9.40;;
70455;SDS011;57916;51.996;5.180;2023-04-24T07:06:09;24.63;;;9.60;;
70455;SDS011;57916;51.996;5.180;2023-04-24T07:08:39;18.80;;;8.93;;
70455;SDS011;57916;51.996;5.180;2023-04-24T07:11:08;22.05;;;9.27;;
70455;SDS011;57916;51.996;5.180;2023-04-24T07:13:35;22.60;;;9.38;;
70455;SDS011;57916;51.996;5.180;2023-04-24T07:16:01;20.33;;;8.87;;
70455;SDS011;57916;51.996;5.180;2023-04-24T07:18:28;23.23;;;8.80;;
70455;SDS011;57916;51.996;5.180;2023-04-24T07:20:55;21.05;;;8.18;;
70455;SDS011;57916;51.996;5.180;2023-04-24T07:23:23;24.95;;;8.80;;
70455;SDS011;57916;51.996;5.180;2023-04-24T07:25:49;17.95;;;7.90;;
70455;SDS011;57916;51.996;5.180;2023-04-24T07:28:16;24.58;;;7.72;;
70455;SDS011;57916;51.996;5.180;2023-04-24T07:30:44;22.40;;;7.28;;
70455;SDS011;57916;51.996;5.180;2023-04-24T07:33:11;29.25;;;7.40;;
70455;SDS011;57916;51.996;5.180;2023-04-24T07:35:39;25.85;;;7.00;;
70455;SDS011;57916;51.996;5.180;2023-04-24T07:38:06;25.52;;;6.43;;
70455;SDS011;57916;51.996;5.180;2023-04-24T07:40:33;25.38;;;6.43;;
70455;SDS011;57916;51.996;5.180;2023-04-24T07:43:00;30.67;;;6.60;;
70455;SDS011;57916;51.996;5.180;2023-04-24T07:45:27;26.10;;;6.60;;
70455;SDS011;57916;51.996;5.180;2023-04-24T07:47:54;29.15;;;6.38;;
70455;SDS011;57916;51.996;5.180;2023-04-24T07:50:21;33.00;;;6.40;;
70455;SDS011;57916;51.996;5.180;2023-04-24T07:52:48;27.37;;;6.70;;
70455;SDS011;57916;51.996;5.180;2023-04-24T07:55:15;25.25;;;5.78;;
70455;SDS011;57916;51.996;5.180;2023-04-24T07:57:42;29.00;;;5.60;;
70455;SDS011;57916;51.996;5.180;2023-04-24T08:00:09;26.03;;;5.00;;
70455;SDS011;57916;51.996;5.180;2023-04-24T08:02:37;23.55;;;5.10;;
70455;SDS011;57916;51.996;5.180;2023-04-24T08:05:04;24.80;;;4.57;;
70455;SDS011;57916;51.996;5.180;2023-04-24T08:07:32;24.93;;;5.13;;
70455;SDS011;57916;51.996;5.180;2023-04-24T08:09:59;26.85;;;4.65;;
70455;SDS011;57916;51.996;5.180;2023-04-24T08:12:27;21.50;;;4.80;;
70455;SDS011;57916;51.996;5.180;2023-04-24T08:14:54;20.10;;;4.07;;
70455;SDS011;57916;51.996;5.180;2023-04-24T08:17:21;19.48;;;3.75;;
70455;SDS011;57916;51.996;5.180;2023-04-24T08:19:48;16.60;;;3.63;;
70455;SDS011;57916;51.996;5.180;2023-04-24T08:22:17;23.30;;;3.95;;
70455;SDS011;57916;51.996;5.180;2023-04-24T08:24:44;16.45;;;2.97;;
70455;SDS011;57916;51.996;5.180;2023-04-24T08:27:11;17.55;;;3.47;;
70455;SDS011;57916;51.996;5.180;2023-04-24T08:29:37;17.52;;;3.47;;
70455;SDS011;57916;51.996;5.180;2023-04-24T08:32:04;16.58;;;3.00;;
70455;SDS011;57916;51.996;5.180;2023-04-24T08:34:32;18.75;;;3.25;;
70455;SDS011;57916;51.996;5.180;2023-04-24T08:36:59;11.47;;;3.03;;
70455;SDS011;57916;51.996;5.180;2023-04-24T08:39:26;12.35;;;2.58;;
70455;SDS011;57916;51.996;5.180;2023-04-24T08:41:52;18.00;;;2.70;;
70455;SDS011;57916;51.996;5.180;2023-04-24T08:44:20;19.15;;;3.20;;
70455;SDS011;57916;51.996;5.180;2023-04-24T08:46:48;13.88;;;3.03;;
70455;SDS011;57916;51.996;5.180;2023-04-24T08:49:15;18.55;;;3.25;;
70455;SDS011;57916;51.996;5.180;2023-04-24T08:51:42;13.98;;;2.70;;
70455;SDS011;57916;51.996;5.180;2023-04-24T08:54:11;14.00;;;3.13;;
70455;SDS011;57916;51.996;5.180;2023-04-24T08:56:39;16.03;;;2.70;;
70455;SDS011;57916;51.996;5.180;2023-04-24T08:59:09;13.77;;;2.57;;
70455;SDS011;57916;51.996;5.180;2023-04-24T09:01:37;15.38;;;2.97;;
70455;SDS011;57916;51.996;5.180;2023-04-24T09:04:07;17.23;;;3.40;;
70455;SDS011;57916;51.996;5.180;2023-04-24T09:06:39;12.48;;;2.95;;
70455;SDS011;57916;51.996;5.180;2023-04-24T09:09:08;15.93;;;3.08;;
70455;SDS011;57916;51.996;5.180;2023-04-24T09:11:37;11.93;;;2.22;;
70455;SDS011;57916;51.996;5.180;2023-04-24T09:14:05;15.52;;;2.67;;
70455;SDS011;57916;51.996;5.180;2023-04-24T09:16:32;10.32;;;2.67;;
70455;SDS011;57916;51.996;5.180;2023-04-24T09:19:02;14.83;;;2.50;;
70455;SDS011;57916;51.996;5.180;2023-04-24T09:21:33;13.27;;;2.60;;
70455;SDS011;57916;51.996;5.180;2023-04-24T09:24:02;9.13;;;2.35;;
70455;SDS011;57916;51.996;5.180;2023-04-24T09:26:44;9.23;;;2.63;;
70455;SDS011;57916;51.996;5.180;2023-04-24T09:29:17;11.83;;;3.17;;
70455;SDS011;57916;51.996;5.180;2023-04-24T09:31:45;14.13;;;2.70;;
70455;SDS011;57916;51.996;5.180;2023-04-24T09:34:12;8.27;;;2.30;;
70455;SDS011;57916;51.996;5.180;2023-04-24T09:36:40;8.85;;;2.20;;
70455;SDS011;57916;51.996;5.180;2023-04-24T09:39:10;6.38;;;2.10;;
70455;SDS011;57916;51.996;5.180;2023-04-24T09:41:44;8.27;;;2.20;;
70455;SDS011;57916;51.996;5.180;2023-04-24T09:44:22;7.05;;;2.00;;
70455;SDS011;57916;51.996;5.180;2023-04-24T09:46:51;10.15;;;2.50;;
70455;SDS011;57916;51.996;5.180;2023-04-24T09:49:28;6.90;;;2.20;;
70455;SDS011;57916;51.996;5.180;2023-04-24T09:52:03;13.75;;;2.95;;
70455;SDS011;57916;51.996;5.180;2023-04-24T09:54:31;15.90;;;2.13;;
70455;SDS011;57916;51.996;5.180;2023-04-24T09:56:59;7.35;;;1.95;;
70455;SDS011;57916;51.996;5.180;2023-04-24T09:59:27;6.03;;;2.35;;
70455;SDS011;57916;51.996;5.180;2023-04-24T10:01:54;7.50;;;1.90;;
70455;SDS011;57916;51.996;5.180;2023-04-24T10:04:22;7.95;;;1.88;;
70455;SDS011;57916;51.996;5.180;2023-04-24T10:06:51;7.68;;;1.50;;
70455;SDS011;57916;51.996;5.180;2023-04-24T10:09:22;6.50;;;1.50;;
70455;SDS011;57916;51.996;5.180;2023-04-24T10:11:51;4.90;;;1.40;;
70455;SDS011;57916;51.996;5.180;2023-04-24T10:14:23;4.73;;;1.37;;
70455;SDS011;57916;51.996;5.180;2023-04-24T10:16:54;5.90;;;1.42;;
70455;SDS011;57916;51.996;5.180;2023-04-24T10:19:25;4.63;;;1.20;;
70455;SDS011;57916;51.996;5.180;2023-04-24T10:21:52;3.60;;;1.03;;
70455;SDS011;57916;51.996;5.180;2023-04-24T10:24:22;9.10;;;1.38;;
70455;SDS011;57916;51.996;5.180;2023-04-24T10:26:48;6.00;;;1.25;;
70455;SDS011;57916;51.996;5.180;2023-04-24T10:29:17;4.70;;;1.15;;
70455;SDS011;57916;51.996;5.180;2023-04-24T10:31:45;9.20;;;1.20;;
70455;SDS011;57916;51.996;5.180;2023-04-24T10:34:14;7.28;;;1.30;;
70455;SDS011;57916;51.996;5.180;2023-04-24T10:36:45;4.20;;;1.17;;
70455;SDS011;57916;51.996;5.180;2023-04-24T10:39:15;6.35;;;1.13;;
70455;SDS011;57916;51.996;5.180;2023-04-24T10:41:44;5.82;;;1.20;;
70455;SDS011;57916;51.996;5.180;2023-04-24T10:44:13;4.78;;;1.20;;
70455;SDS011;57916;51.996;5.180;2023-04-24T10:46:44;7.45;;;1.10;;
70455;SDS011;57916;51.996;5.180;2023-04-24T10:49:13;5.63;;;1.17;;
70455;SDS011;57916;51.996;5.180;2023-04-24T10:51:47;4.70;;;1.40;;
70455;SDS011;57916;51.996;5.180;2023-04-24T10:54:25;3.08;;;0.90;;
70455;SDS011;57916;51.996;5.180;2023-04-24T10:56:53;5.30;;;0.90;;
70455;SDS011;57916;51.996;5.180;2023-04-24T10:59:40;5.35;;;0.93;;
70455;SDS011;57916;51.996;5.180;2023-04-24T11:02:07;3.88;;;1.00;;
70455;SDS011;57916;51.996;5.180;2023-04-24T11:04:34;3.30;;;1.05;;
70455;SDS011;57916;51.996;5.180;2023-04-24T11:07:04;3.53;;;0.80;;
70455;SDS011;57916;51.996;5.180;2023-04-24T11:09:32;3.65;;;0.77;;
70455;SDS011;57916;51.996;5.180;2023-04-24T11:15:18;6.43;;;1.10;;
70455;SDS011;57916;51.996;5.180;2023-04-24T11:17:30;4.88;;;1.02;;
70455;SDS011;57916;51.996;5.180;2023-04-24T11:22:52;3.58;;;0.93;;
70455;SDS011;57916;51.996;5.180;2023-04-24T11:25:24;2.78;;;0.82;;
70455;SDS011;57916;51.996;5.180;2023-04-24T11:27:52;3.05;;;0.70;;
70455;SDS011;57916;51.996;5.180;2023-04-24T11:30:31;3.63;;;0.80;;
70455;SDS011;57916;51.996;5.180;2023-04-24T11:33:05;4.47;;;0.90;;
70455;SDS011;57916;51.996;5.180;2023-04-24T11:35:36;3.25;;;0.80;;
70455;SDS011;57916;51.996;5.180;2023-04-24T11:38:06;4.05;;;0.75;;
70455;SDS011;57916;51.996;5.180;2023-04-24T11:40:50;3.83;;;0.80;;
70455;SDS011;57916;51.996;5.180;2023-04-24T11:43:18;4.85;;;1.10;;
70455;SDS011;57916;51.996;5.180;2023-04-24T11:45:49;3.33;;;0.80;;
70455;SDS011;57916;51.996;5.180;2023-04-24T11:48:20;5.65;;;0.90;;
70455;SDS011;57916;51.996;5.180;2023-04-24T11:50:50;5.20;;;0.93;;
70455;SDS011;57916;51.996;5.180;2023-04-24T11:53:18;2.97;;;0.80;;
70455;SDS011;57916;51.996;5.180;2023-04-24T11:55:46;4.25;;;0.80;;
70455;SDS011;57916;51.996;5.180;2023-04-24T11:58:13;3.97;;;1.20;;
70455;SDS011;57916;51.996;5.180;2023-04-24T12:00:40;2.33;;;0.95;;
70455;SDS011;57916;51.996;5.180;2023-04-24T12:03:08;3.97;;;1.08;;
70455;SDS011;57916;51.996;5.180;2023-04-24T12:05:37;3.10;;;1.15;;
70455;SDS011;57916;51.996;5.180;2023-04-24T12:08:05;4.40;;;0.90;;
70455;SDS011;57916;51.996;5.180;2023-04-24T12:10:32;3.47;;;1.30;;
70455;SDS011;57916;51.996;5.180;2023-04-24T12:13:00;4.07;;;1.38;;
70455;SDS011;57916;51.996;5.180;2023-04-24T12:15:28;9.37;;;1.93;;
70455;SDS011;57916;51.996;5.180;2023-04-24T12:17:55;3.25;;;1.45;;
70455;SDS011;57916;51.996;5.180;2023-04-24T12:20:29;6.38;;;1.70;;
70455;SDS011;57916;51.996;5.180;2023-04-24T12:23:01;6.57;;;1.63;;
70455;SDS011;57916;51.996;5.180;2023-04-24T12:25:28;6.03;;;1.37;;
70455;SDS011;57916;51.996;5.180;2023-04-24T12:30:35;6.97;;;1.52;;
70455;SDS011;57916;51.996;5.180;2023-04-24T12:33:21;12.52;;;2.08;;
70455;SDS011;57916;51.996;5.180;2023-04-24T12:35:51;6.97;;;1.52;;
70455;SDS011;57916;51.996;5.180;2023-04-24T12:38:22;9.27;;;1.63;;
70455;SDS011;57916;51.996;5.180;2023-04-24T12:41:05;5.28;;;1.40;;
70455;SDS011;57916;51.996;5.180;2023-04-24T12:43:33;6.40;;;1.75;;
70455;SDS011;57916;51.996;5.180;2023-04-24T12:46:01;10.25;;;1.50;;
70455;SDS011;57916;51.996;5.180;2023-04-24T12:48:29;13.60;;;2.15;;
70455;SDS011;57916;51.996;5.180;2023-04-24T12:50:57;9.65;;;1.95;;
70455;SDS011;57916;51.996;5.180;2023-04-24T12:53:27;13.03;;;1.87;;
70455;SDS011;57916;51.996;5.180;2023-04-24T12:55:58;7.13;;;1.60;;
70455;SDS011;57916;51.996;5.180;2023-04-24T12:58:25;16.88;;;2.28;;
70455;SDS011;57916;51.996;5.180;2023-04-24T13:00:52;9.15;;;1.73;;
70455;SDS011;57916;51.996;5.180;2023-04-24T13:03:19;7.05;;;2.08;;
70455;SDS011;57916;51.996;5.180;2023-04-24T13:05:46;10.15;;;2.15;;
70455;SDS011;57916;51.996;5.180;2023-04-24T13:08:14;13.32;;;2.22;;
70455;SDS011;57916;51.996;5.180;2023-04-24T13:10:40;10.43;;;1.98;;
70455;SDS011;57916;51.996;5.180;2023-04-24T13:13:08;8.95;;;2.05;;
70455;SDS011;57916;51.996;5.180;2023-04-24T13:15:35;12.73;;;2.40;;
70455;SDS011;57916;51.996;5.180;2023-04-24T13:18:02;11.85;;;2.30;;
70455;SDS011;57916;51.996;5.180;2023-04-24T13:20:29;11.15;;;2.47;;
70455;SDS011;57916;51.996;5.180;2023-04-24T13:22:56;13.57;;;2.10;;
70455;SDS011;57916;51.996;5.180;2023-04-24T13:25:23;20.58;;;2.42;;
70455;SDS011;57916;51.996;5.180;2023-04-24T13:27:51;15.35;;;2.30;;
70455;SDS011;57916;51.996;5.180;2023-04-24T13:30:18;11.48;;;2.30;;
70455;SDS011;57916;51.996;5.180;2023-04-24T13:32:45;9.43;;;2.15;;
70455;SDS011;57916;51.996;5.180;2023-04-24T13:35:12;9.77;;;2.23;;
70455;SDS011;57916;51.996;5.180;2023-04-24T13:37:39;11.05;;;1.92;;
70455;SDS011;57916;51.996;5.180;2023-04-24T13:40:05;10.20;;;1.77;;
70455;SDS011;57916;51.996;5.180;2023-04-24T13:42:33;7.25;;;1.58;;
70455;SDS011;57916;51.996;5.180;2023-04-24T13:45:00;7.77;;;1.90;;
70455;SDS011;57916;51.996;5.180;2023-04-24T13:47:36;12.38;;;2.40;;
70455;SDS011;57916;51.996;5.180;2023-04-24T13:50:03;11.30;;;2.33;;
70455;SDS011;57916;51.996;5.180;2023-04-24T13:52:31;14.50;;;2.20;;
70455;SDS011;57916;51.996;5.180;2023-04-24T13:54:58;7.07;;;2.05;;
70455;SDS011;57916;51.996;5.180;2023-04-24T13:57:24;13.02;;;2.40;;
70455;SDS011;57916;51.996;5.180;2023-04-24T13:59:52;8.45;;;2.17;;
70455;SDS011;57916;51.996;5.180;2023-04-24T14:02:18;10.40;;;2.43;;
70455;SDS011;57916;51.996;5.180;2023-04-24T14:04:46;10.15;;;2.42;;
70455;SDS011;57916;51.996;5.180;2023-04-24T14:07:14;9.55;;;2.38;;
70455;SDS011;57916;51.996;5.180;2023-04-24T14:09:41;11.20;;;2.35;;
70455;SDS011;57916;51.996;5.180;2023-04-24T14:12:08;10.85;;;2.50;;
70455;SDS011;57916;51.996;5.180;2023-04-24T14:14:35;9.57;;;2.30;;
70455;SDS011;57916;51.996;5.180;2023-04-24T14:17:02;10.52;;;2.20;;
70455;SDS011;57916;51.996;5.180;2023-04-24T14:19:29;10.80;;;2.43;;
70455;SDS011;57916;51.996;5.180;2023-04-24T14:21:56;7.68;;;2.80;;
70455;SDS011;57916;51.996;5.180;2023-04-24T14:24:24;13.32;;;2.80;;
70455;SDS011;57916;51.996;5.180;2023-04-24T14:26:51;11.25;;;2.60;;
70455;SDS011;57916;51.996;5.180;2023-04-24T14:29:18;12.10;;;2.72;;
70455;SDS011;57916;51.996;5.180;2023-04-24T14:31:45;14.45;;;2.63;;
70455;SDS011;57916;51.996;5.180;2023-04-24T14:34:13;12.48;;;2.53;;
70455;SDS011;57916;51.996;5.180;2023-04-24T14:36:40;10.88;;;2.85;;
70455;SDS011;57916;51.996;5.180;2023-04-24T14:39:08;13.98;;;2.55;;
70455;SDS011;57916;51.996;5.180;2023-04-24T14:41:34;9.57;;;2.53;;
70455;SDS011;57916;51.996;5.180;2023-04-24T14:44:02;9.40;;;3.13;;
70455;SDS011;57916;51.996;5.180;2023-04-24T14:46:29;10.52;;;2.83;;
70455;SDS011;57916;51.996;5.180;2023-04-24T14:48:57;9.70;;;2.75;;
70455;SDS011;57916;51.996;5.180;2023-04-24T14:51:24;12.38;;;3.05;;
70455;SDS011;57916;51.996;5.180;2023-04-24T14:53:51;8.10;;;2.55;;
70455;SDS011;57916;51.996;5.180;2023-04-24T14:56:18;9.65;;;2.95;;
70455;SDS011;57916;51.996;5.180;2023-04-24T14:58:45;10.07;;;2.75;;
70455;SDS011;57916;51.996;5.180;2023-04-24T15:01:12;8.82;;;2.75;;